createdAt,value
2018-04-20T00:00:17.252Z,20.53
2018-04-20T00:02:43.740Z,19.47
2018-04-20T00:05:10.201Z,17.67
2018-04-20T00:07:36.574Z,16.87
2018-04-20T00:10:03.023Z,19.63
2018-04-20T00:12:29.475Z,16.90
2018-04-20T00:14:56.423Z,18.10
2018-04-20T00:17:22.861Z,16.17
2018-04-20T00:19:49.427Z,16.40
2018-04-20T00:22:15.897Z,15.63
2018-04-20T00:24:42.331Z,15.73
2018-04-20T00:27:08.712Z,16.23
2018-04-20T00:29:35.135Z,16.37
2018-04-20T00:32:01.647Z,16.73
2018-04-20T00:34:28.063Z,16.17
2018-04-20T00:36:54.408Z,16.63
2018-04-20T00:39:20.792Z,15.57
2018-04-20T00:41:47.093Z,17.00
2018-04-20T00:44:13.429Z,18.63
2018-04-20T00:46:39.788Z,17.70
2018-04-20T00:49:06.164Z,17.87
2018-04-20T00:51:32.561Z,20.33
2018-04-20T00:54:17.314Z,25.73
2018-04-20T00:56:43.691Z,24.67
2018-04-20T00:59:10.037Z,22.30
2018-04-20T01:01:36.411Z,21.60
2018-04-20T01:04:02.742Z,21.87
2018-04-20T01:06:29.072Z,21.70
2018-04-20T01:08:55.368Z,19.13
2018-04-20T01:11:21.751Z,17.83
2018-04-20T01:13:48.060Z,17.00
2018-04-20T01:16:14.527Z,17.60
2018-04-20T01:18:40.845Z,17.07
2018-04-20T01:21:08.183Z,16.50
2018-04-20T01:23:34.470Z,15.63
2018-04-20T01:26:00.770Z,15.70
2018-04-20T01:28:27.091Z,13.70
2018-04-20T01:30:53.407Z,15.67
2018-04-20T01:33:19.699Z,16.37
2018-04-20T01:35:45.986Z,15.53
2018-04-20T01:38:12.302Z,16.37
2018-04-20T01:40:38.633Z,15.57
2018-04-20T01:43:05.817Z,15.30
2018-04-20T01:45:32.159Z,15.30
2018-04-20T01:47:59.352Z,15.60
2018-04-20T01:50:25.684Z,15.80
2018-04-20T01:52:51.993Z,16.83
2018-04-20T01:55:18.270Z,14.33
2018-04-20T01:57:44.621Z,14.80
2018-04-20T02:00:10.914Z,15.07
2018-04-20T02:02:37.240Z,14.07
2018-04-20T02:05:03.574Z,15.40
2018-04-20T02:07:29.903Z,16.83
2018-04-20T02:09:56.259Z,14.00
2018-04-20T02:12:22.606Z,15.87
2018-04-20T02:14:48.937Z,15.40
2018-04-20T02:17:15.338Z,13.90
2018-04-20T02:19:41.624Z,14.70
2018-04-20T02:22:07.902Z,15.17
2018-04-20T02:24:34.239Z,15.87
2018-04-20T02:27:00.540Z,15.57
2018-04-20T02:29:26.833Z,16.57
2018-04-20T02:31:53.932Z,15.13
2018-04-20T02:34:20.351Z,15.73
2018-04-20T02:36:46.617Z,14.50
2018-04-20T02:39:12.938Z,15.80
2018-04-20T02:41:39.335Z,16.07
2018-04-20T02:44:05.651Z,16.33
2018-04-20T02:46:31.913Z,18.50
2018-04-20T02:48:58.230Z,17.87
2018-04-20T02:51:24.600Z,18.07
2018-04-20T02:53:51.811Z,16.83
2018-04-20T02:56:18.092Z,17.00
2018-04-20T02:58:44.408Z,17.40
2018-04-20T03:01:10.706Z,17.93
2018-04-20T03:03:36.997Z,17.20
2018-04-20T03:06:03.292Z,19.17
2018-04-20T03:08:29.617Z,16.97
2018-04-20T03:10:55.971Z,19.07
2018-04-20T03:13:22.399Z,19.20
2018-04-20T03:15:48.819Z,17.80
2018-04-20T03:18:15.276Z,18.47
2018-04-20T03:20:42.245Z,17.30
2018-04-20T03:23:09.321Z,20.20
2018-04-20T03:25:35.663Z,19.10
2018-04-20T03:28:01.980Z,19.07
2018-04-20T03:30:29.068Z,20.93
2018-04-20T03:32:55.586Z,20.13
2018-04-20T03:35:21.965Z,18.57
2018-04-20T03:37:48.257Z,20.30
2018-04-20T03:40:14.564Z,18.77
2018-04-20T03:42:40.919Z,17.50
2018-04-20T03:45:07.179Z,17.87
2018-04-20T03:47:33.541Z,17.37
2018-04-20T03:50:00.628Z,16.27
2018-04-20T03:52:26.933Z,16.53
2018-04-20T03:54:53.276Z,17.70
2018-04-20T03:57:19.599Z,16.30
2018-04-20T03:59:45.892Z,15.70
2018-04-20T04:02:12.163Z,17.27
2018-04-20T04:04:38.485Z,16.70
2018-04-20T04:07:04.802Z,17.70
2018-04-20T04:09:32.362Z,16.23
2018-04-20T04:12:00.474Z,17.97
2018-04-20T04:14:26.816Z,15.93
2018-04-20T04:17:11.722Z,17.13
2018-04-20T04:23:08.955Z,16.17
2018-04-20T04:25:53.852Z,16.43
2018-04-20T04:28:27.074Z,17.00
2018-04-20T04:30:54.111Z,17.57
2018-04-20T04:33:20.372Z,15.60
2018-04-20T04:35:46.687Z,14.10
2018-04-20T04:38:13.003Z,15.30
2018-04-20T04:40:40.135Z,15.90
2018-04-20T04:43:06.421Z,14.80
2018-04-20T04:45:32.752Z,15.20
2018-04-20T04:47:59.030Z,15.40
2018-04-20T04:50:25.341Z,12.57
2018-04-20T04:52:51.679Z,14.57
2018-04-20T04:55:23.872Z,14.30
2018-04-20T04:57:50.175Z,13.50
2018-04-20T05:00:16.451Z,15.23
2018-04-20T05:02:43.499Z,13.00
2018-04-20T05:05:10.533Z,12.90
2018-04-20T05:07:36.778Z,14.50
2018-04-20T05:10:03.802Z,12.67
2018-04-20T05:12:31.405Z,13.90
2018-04-20T05:14:57.720Z,11.13
2018-04-20T05:17:24.038Z,12.97
2018-04-20T05:19:51.340Z,12.37
2018-04-20T05:22:17.636Z,10.90
2018-04-20T05:24:43.937Z,10.40
2018-04-20T05:27:10.242Z,10.83
2018-04-20T05:29:36.539Z,11.40
2018-04-20T05:32:02.832Z,10.00
2018-04-20T05:34:29.882Z,9.37
2018-04-20T05:36:56.195Z,9.70
2018-04-20T05:39:22.598Z,9.33
2018-04-20T05:41:48.924Z,9.77
2018-04-20T05:44:15.285Z,10.10
2018-04-20T05:46:41.630Z,11.37
2018-04-20T05:49:08.066Z,10.90
2018-04-20T05:51:34.530Z,10.50
2018-04-20T05:54:01.577Z,9.90
2018-04-20T05:56:27.949Z,11.40
2018-04-20T05:58:54.317Z,9.57
2018-04-20T06:01:24.665Z,10.10
2018-04-20T06:03:51.812Z,10.27
2018-04-20T06:06:18.853Z,9.60
2018-04-20T06:08:45.905Z,10.83
2018-04-20T06:11:12.968Z,9.87
2018-04-20T06:13:39.282Z,10.73
2018-04-20T06:16:06.372Z,10.53
2018-04-20T06:18:32.678Z,9.90
2018-04-20T06:20:58.985Z,10.60
2018-04-20T06:23:25.304Z,10.90
2018-04-20T06:25:51.591Z,10.80
2018-04-20T06:28:17.859Z,9.37
2018-04-20T06:30:44.209Z,9.60
2018-04-20T06:33:11.254Z,8.80
2018-04-20T06:35:37.526Z,9.50
2018-04-20T06:38:03.795Z,9.93
2018-04-20T06:40:30.084Z,8.90
2018-04-20T06:42:56.359Z,9.63
2018-04-20T06:45:22.680Z,8.47
2018-04-20T06:47:48.975Z,8.60
2018-04-20T06:50:15.265Z,9.10
2018-04-20T06:52:42.352Z,8.70
2018-04-20T06:55:08.679Z,9.73
2018-04-20T06:57:34.971Z,7.33
2018-04-20T07:00:01.284Z,10.13
2018-04-20T07:02:27.589Z,8.87
2018-04-20T07:04:53.918Z,8.40
2018-04-20T07:07:20.209Z,8.13
2018-04-20T07:09:47.251Z,7.10
2018-04-20T07:12:14.322Z,8.57
2018-04-20T07:14:40.618Z,8.47
2018-04-20T07:17:06.924Z,8.00
2018-04-20T07:19:33.190Z,8.60
2018-04-20T07:22:00.246Z,7.60
2018-04-20T07:24:27.295Z,8.60
2018-04-20T07:26:54.317Z,7.47
2018-04-20T07:29:20.630Z,7.50
2018-04-20T07:31:47.001Z,8.40
2018-04-20T07:34:14.026Z,6.80
2018-04-20T07:36:40.404Z,7.67
2018-04-20T07:39:06.684Z,7.20
2018-04-20T07:41:33.725Z,7.57
2018-04-20T07:44:00.689Z,7.63
2018-04-20T07:46:27.017Z,5.70
2018-04-20T07:48:53.345Z,7.13
2018-04-20T07:51:19.580Z,7.17
2018-04-20T07:53:46.014Z,6.57
2018-04-20T07:56:12.348Z,6.20
2018-04-20T07:58:38.679Z,6.70
2018-04-20T08:01:05.965Z,7.73
2018-04-20T08:03:32.255Z,7.57
2018-04-20T08:05:58.620Z,5.90
2018-04-20T08:08:24.953Z,5.63
2018-04-20T08:10:51.321Z,5.47
2018-04-20T08:13:17.617Z,6.20
2018-04-20T08:15:43.965Z,7.13
2018-04-20T08:18:10.267Z,6.03
2018-04-20T08:20:37.767Z,6.60
2018-04-20T08:23:04.255Z,6.57
2018-04-20T08:25:31.319Z,6.47
2018-04-20T08:27:57.604Z,5.97
2018-04-20T08:30:23.936Z,6.70
2018-04-20T08:32:50.246Z,5.30
2018-04-20T08:35:16.549Z,5.80
2018-04-20T08:37:42.958Z,6.80
2018-04-20T08:40:09.961Z,5.10
2018-04-20T08:42:36.244Z,5.63
2018-04-20T08:45:02.565Z,6.20
2018-04-20T08:47:29.633Z,6.03
2018-04-20T08:49:55.943Z,5.90
2018-04-20T08:52:23.043Z,4.80
2018-04-20T08:54:49.330Z,5.37
2018-04-20T08:57:16.383Z,5.50
2018-04-20T08:59:43.482Z,4.90
2018-04-20T09:02:09.815Z,4.50
2018-04-20T09:04:36.165Z,4.87
2018-04-20T09:07:02.443Z,4.50
2018-04-20T09:09:28.743Z,5.10
2018-04-20T09:11:55.755Z,4.93
2018-04-20T09:14:22.086Z,4.60
2018-04-20T09:16:48.344Z,5.20
2018-04-20T09:19:14.611Z,5.20
2018-04-20T09:21:40.875Z,4.80
2018-04-20T09:24:07.197Z,4.40
2018-04-20T09:26:33.509Z,4.90
2018-04-20T09:28:59.775Z,4.40
2018-04-20T09:31:26.092Z,4.80
2018-04-20T09:33:52.426Z,5.00
2018-04-20T09:36:18.787Z,4.87
2018-04-20T09:38:45.082Z,4.83
2018-04-20T09:41:11.471Z,3.60
2018-04-20T09:43:37.781Z,4.33
2018-04-20T09:46:04.753Z,4.47
2018-04-20T09:48:31.075Z,3.90
2018-04-20T09:51:04.364Z,4.10
2018-04-20T09:53:30.746Z,4.47
2018-04-20T09:55:58.008Z,3.80
2018-04-20T09:58:24.354Z,3.90
2018-04-20T10:00:50.720Z,4.30
2018-04-20T10:03:17.811Z,4.13
2018-04-20T10:05:44.304Z,3.90
2018-04-20T10:08:10.662Z,3.50
2018-04-20T10:10:36.963Z,4.03
2018-04-20T10:13:04.011Z,3.43
2018-04-20T10:15:31.190Z,3.40
2018-04-20T10:17:57.515Z,3.37
2018-04-20T10:20:23.875Z,2.97
2018-04-20T10:22:50.321Z,3.20
2018-04-20T10:25:16.764Z,3.10
2018-04-20T10:27:43.110Z,3.40
2018-04-20T10:30:09.445Z,3.43
2018-04-20T10:32:35.780Z,3.27
2018-04-20T10:35:02.147Z,3.27
2018-04-20T10:37:28.515Z,3.67
2018-04-20T10:39:54.912Z,3.10
2018-04-20T10:42:21.222Z,3.10
2018-04-20T10:44:48.243Z,2.77
2018-04-20T10:47:14.581Z,3.33
2018-04-20T10:49:40.906Z,2.60
2018-04-20T10:52:07.225Z,3.03
2018-04-20T10:54:33.610Z,3.07
2018-04-20T10:56:59.920Z,3.53
2018-04-20T10:59:26.913Z,2.63
2018-04-20T11:01:53.343Z,3.23
2018-04-20T11:04:19.721Z,2.57
2018-04-20T11:06:46.082Z,3.03
2018-04-20T11:09:12.363Z,3.57
2018-04-20T11:11:38.685Z,3.10
2018-04-20T11:14:04.989Z,3.50
2018-04-20T11:16:31.358Z,2.90
2018-04-20T11:18:57.712Z,3.30
2018-04-20T11:21:24.022Z,2.27
2018-04-20T11:23:50.377Z,2.67
2018-04-20T11:26:17.433Z,3.23
2018-04-20T11:28:43.779Z,2.90
2018-04-20T11:31:10.069Z,2.73
2018-04-20T11:33:36.380Z,2.73
2018-04-20T11:36:02.739Z,2.70
2018-04-20T11:38:29.757Z,2.30
2018-04-20T11:40:56.071Z,3.30
2018-04-20T11:43:22.347Z,2.60
2018-04-20T11:45:48.641Z,3.40
2018-04-20T11:48:15.074Z,2.50
2018-04-20T11:50:41.385Z,1.97
2018-04-20T11:53:07.743Z,2.10
2018-04-20T11:55:34.095Z,2.57
2018-04-20T11:58:00.428Z,1.60
2018-04-20T12:00:26.786Z,2.57
2018-04-20T12:02:53.876Z,1.87
2018-04-20T12:05:21.718Z,1.60
2018-04-20T12:07:48.334Z,1.63
2018-04-20T12:10:15.614Z,1.70
2018-04-20T12:12:42.005Z,2.60
2018-04-20T12:15:08.331Z,1.90
2018-04-20T12:17:34.816Z,1.93
2018-04-20T12:20:01.103Z,1.50
2018-04-20T12:22:27.503Z,1.30
2018-04-20T12:24:54.837Z,1.63
2018-04-20T12:27:21.227Z,1.73
2018-04-20T12:29:47.537Z,1.60
2018-04-20T12:32:14.016Z,1.60
2018-04-20T12:34:41.169Z,1.73
2018-04-20T12:37:07.658Z,1.60
2018-04-20T12:39:35.063Z,1.27
2018-04-20T12:42:01.431Z,1.47
2018-04-20T12:44:28.882Z,1.60
2018-04-20T12:46:55.501Z,1.60
2018-04-20T12:49:21.823Z,1.80
2018-04-20T12:51:48.731Z,1.80
2018-04-20T12:54:15.207Z,1.57
2018-04-20T12:56:41.608Z,1.17
2018-04-20T12:59:07.999Z,2.10
2018-04-20T13:01:34.825Z,1.80
2018-04-20T13:04:01.385Z,1.33
2018-04-20T13:06:27.755Z,1.23
2018-04-20T13:08:54.259Z,1.43
2018-04-20T13:11:20.717Z,1.67
2018-04-20T13:13:47.101Z,1.43
2018-04-20T13:16:14.313Z,1.40
2018-04-20T13:18:41.782Z,1.50
2018-04-20T13:21:08.865Z,1.60
2018-04-20T13:23:35.237Z,1.30
2018-04-20T13:26:01.536Z,1.57
2018-04-20T13:28:27.926Z,1.63
2018-04-20T13:30:55.022Z,1.90
2018-04-20T13:33:21.378Z,1.70
2018-04-20T13:35:47.676Z,1.70
2018-04-20T13:38:14.073Z,1.97
2018-04-20T13:40:41.118Z,1.90
2018-04-20T13:43:08.204Z,1.70
2018-04-20T13:45:34.533Z,1.77
2018-04-20T13:48:01.622Z,1.70
2018-04-20T13:50:27.968Z,1.80
2018-04-20T13:52:55.885Z,2.20
2018-04-20T13:55:22.222Z,2.27
2018-04-20T13:57:48.524Z,1.43
2018-04-20T14:00:14.843Z,1.80
2018-04-20T14:02:41.885Z,1.73
2018-04-20T14:05:08.251Z,1.73
2018-04-20T14:07:35.239Z,2.27
2018-04-20T14:10:01.823Z,2.20
2018-04-20T14:12:28.416Z,1.67
2018-04-20T14:14:54.713Z,1.80
2018-04-20T14:17:21.074Z,1.90
2018-04-20T14:19:47.375Z,1.60
2018-04-20T14:22:13.738Z,1.60
2018-04-20T14:24:40.037Z,1.37
2018-04-20T14:27:06.399Z,1.50
2018-04-20T14:29:32.679Z,1.67
2018-04-20T14:31:59.037Z,2.40
2018-04-20T14:34:25.409Z,1.50
2018-04-20T14:36:51.667Z,1.43
2018-04-20T14:39:18.089Z,2.20
2018-04-20T14:41:45.154Z,1.77
2018-04-20T14:44:11.442Z,1.90
2018-04-20T14:46:37.765Z,1.50
2018-04-20T14:49:04.871Z,1.57
2018-04-20T14:51:31.144Z,1.40
2018-04-20T14:53:57.415Z,1.60
2018-04-20T14:56:23.777Z,1.80
2018-04-20T14:58:50.082Z,1.80
2018-04-20T15:01:16.460Z,1.80
2018-04-20T15:03:42.856Z,2.23
2018-04-20T15:06:09.177Z,1.53
2018-04-20T15:08:35.810Z,1.90
2018-04-20T15:11:02.420Z,2.10
2018-04-20T15:13:28.844Z,1.73
2018-04-20T15:15:55.479Z,2.00
2018-04-20T15:18:21.840Z,1.80
2018-04-20T15:20:48.953Z,1.50
2018-04-20T15:23:15.375Z,1.67
2018-04-20T15:25:41.743Z,2.00
2018-04-20T15:28:08.914Z,2.40
2018-04-20T15:30:35.267Z,2.00
2018-04-20T15:33:01.591Z,2.63
2018-04-20T15:35:27.928Z,2.20
2018-04-20T15:37:54.222Z,2.63
2018-04-20T15:40:21.341Z,2.33
2018-04-20T15:42:47.604Z,2.13
2018-04-20T15:45:14.718Z,2.37
2018-04-20T15:47:41.047Z,2.47
2018-04-20T15:50:07.582Z,1.77
2018-04-20T15:52:33.884Z,2.53
2018-04-20T15:55:00.172Z,2.70
2018-04-20T15:57:26.471Z,2.80
2018-04-20T15:59:52.809Z,3.00
2018-04-20T16:02:19.932Z,3.10
2018-04-20T16:04:46.286Z,2.03
2018-04-20T16:07:12.593Z,2.63
2018-04-20T16:09:39.005Z,2.50
2018-04-20T16:12:05.349Z,2.80
2018-04-20T16:14:31.714Z,2.40
2018-04-20T16:16:57.989Z,2.40
2018-04-20T16:19:24.378Z,2.23
2018-04-20T16:21:50.711Z,2.47
2018-04-20T16:24:16.994Z,2.57
2018-04-20T16:26:43.298Z,2.57
2018-04-20T16:29:09.776Z,3.20
2018-04-20T16:31:36.364Z,2.03
2018-04-20T16:34:02.699Z,2.83
2018-04-20T16:36:29.745Z,2.67
2018-04-20T16:38:56.084Z,3.17
2018-04-20T16:41:23.168Z,3.73
2018-04-20T16:43:49.509Z,4.50
2018-04-20T16:46:15.790Z,3.63
2018-04-20T16:48:42.111Z,3.00
2018-04-20T16:51:15.322Z,3.57
2018-04-20T16:53:41.615Z,3.10
2018-04-20T16:56:08.149Z,3.97
2018-04-20T16:58:34.710Z,4.10
2018-04-20T17:01:01.406Z,4.67
2018-04-20T17:03:34.576Z,3.63
2018-04-20T17:06:00.952Z,3.30
2018-04-20T17:08:27.545Z,3.97
2018-04-20T17:10:54.109Z,3.90
2018-04-20T17:13:20.434Z,3.90
2018-04-20T17:15:46.759Z,4.40
2018-04-20T17:18:13.098Z,5.00
2018-04-20T17:20:40.282Z,4.67
2018-04-20T17:23:07.268Z,5.10
2018-04-20T17:25:33.622Z,5.00
2018-04-20T17:27:59.945Z,5.10
2018-04-20T17:30:26.315Z,8.97
2018-04-20T17:32:52.837Z,11.13
2018-04-20T17:35:19.190Z,15.40
2018-04-20T17:37:45.714Z,11.50
2018-04-20T17:40:12.357Z,8.70
2018-04-20T17:42:38.653Z,7.83
2018-04-20T17:45:05.029Z,8.97
2018-04-20T17:47:31.383Z,8.43
2018-04-20T17:49:57.764Z,7.00
2018-04-20T17:52:24.191Z,9.30
2018-04-20T17:54:50.671Z,9.57
2018-04-20T17:57:17.199Z,8.13
2018-04-20T17:59:43.535Z,8.20
2018-04-20T18:02:09.881Z,7.43
2018-04-20T18:04:36.161Z,8.50
2018-04-20T18:07:03.754Z,11.10
2018-04-20T18:09:30.205Z,10.20
2018-04-20T18:11:56.645Z,7.10
2018-04-20T18:14:23.723Z,6.17
2018-04-20T18:16:50.129Z,7.10
2018-04-20T18:19:24.380Z,6.87
2018-04-20T18:21:50.776Z,7.77
2018-04-20T18:24:17.214Z,8.87
2018-04-20T18:26:44.399Z,10.57
2018-04-20T18:29:10.725Z,7.07
2018-04-20T18:31:37.041Z,6.17
2018-04-20T18:34:04.133Z,7.53
2018-04-20T18:39:18.879Z,11.47
2018-04-20T18:41:46.447Z,13.00
2018-04-20T18:44:12.807Z,11.50
2018-04-20T18:46:39.114Z,15.40
2018-04-20T18:49:05.428Z,12.53
2018-04-20T18:51:32.762Z,17.60
2018-04-20T18:53:59.812Z,17.67
2018-04-20T18:56:26.920Z,15.93
2018-04-20T18:58:53.315Z,13.13
2018-04-20T19:01:19.642Z,15.80
2018-04-20T19:03:46.000Z,15.10
2018-04-20T19:06:12.638Z,14.03
2018-04-20T19:08:38.985Z,11.80
2018-04-20T19:11:06.373Z,11.90
2018-04-20T19:13:33.189Z,13.20
2018-04-20T19:15:59.774Z,13.70
2018-04-20T19:18:26.952Z,12.17
2018-04-20T19:20:53.304Z,12.70
2018-04-20T19:23:19.753Z,13.67
2018-04-20T19:25:46.303Z,11.50
2018-04-20T19:28:12.791Z,12.03
2018-04-20T19:30:39.197Z,15.83
2018-04-20T19:33:05.794Z,10.43
2018-04-20T19:35:32.207Z,9.47
2018-04-20T19:37:58.562Z,11.47
2018-04-20T19:40:25.095Z,9.30
2018-04-20T19:42:51.660Z,8.77
2018-04-20T19:45:20.698Z,9.80
2018-04-20T19:47:47.170Z,8.37
2018-04-20T19:50:13.603Z,7.80
2018-04-20T19:52:40.011Z,6.17
2018-04-20T19:55:06.501Z,6.90
2018-04-20T19:57:32.978Z,8.70
2018-04-20T20:00:00.059Z,7.43
2018-04-20T20:02:26.754Z,6.57
2018-04-20T20:04:53.774Z,7.07
2018-04-20T20:07:20.343Z,6.07
2018-04-20T20:09:46.879Z,6.50
2018-04-20T20:12:13.483Z,6.17
2018-04-20T20:14:40.867Z,7.67
2018-04-20T20:17:07.211Z,5.73
2018-04-20T20:19:33.601Z,6.47
2018-04-20T20:22:00.717Z,7.23
2018-04-20T20:24:27.155Z,6.43
2018-04-20T20:26:53.758Z,7.37
2018-04-20T20:29:20.111Z,8.00
2018-04-20T20:31:46.445Z,8.27
2018-04-20T20:34:12.783Z,7.80
2018-04-20T20:36:39.250Z,7.40
2018-04-20T20:39:05.621Z,7.90
2018-04-20T20:41:32.061Z,7.17
2018-04-20T20:43:58.447Z,7.57
2018-04-20T20:46:24.881Z,8.30
2018-04-20T20:48:51.359Z,8.30
2018-04-20T20:51:18.125Z,11.00
2018-04-20T20:53:44.454Z,7.00
2018-04-20T20:56:10.868Z,8.70
2018-04-20T20:58:37.240Z,10.80
2018-04-20T21:01:03.594Z,10.93
2018-04-20T21:03:30.630Z,12.23
2018-04-20T21:05:57.169Z,11.10
2018-04-20T21:08:23.633Z,13.50
2018-04-20T21:10:50.043Z,14.90
2018-04-20T21:13:16.481Z,13.90
2018-04-20T21:15:43.190Z,13.17
2018-04-20T21:18:09.553Z,14.10
2018-04-20T21:20:35.886Z,16.57
2018-04-20T21:23:02.259Z,18.03
2018-04-20T21:25:28.686Z,15.37
2018-04-20T21:27:55.193Z,15.00
2018-04-20T21:30:21.563Z,17.10
2018-04-20T21:32:47.896Z,13.60
2018-04-20T21:35:14.218Z,15.20
2018-04-20T21:37:40.495Z,14.63
2018-04-20T21:40:07.720Z,13.87
2018-04-20T21:42:35.099Z,13.63
2018-04-20T21:45:02.127Z,14.60
2018-04-20T21:47:28.520Z,15.57
2018-04-20T21:49:54.898Z,12.73
2018-04-20T21:52:22.118Z,12.37
2018-04-20T21:54:48.472Z,13.17
2018-04-20T21:57:14.842Z,13.90
2018-04-20T21:59:41.951Z,15.60
2018-04-20T22:02:09.447Z,15.67
2018-04-20T22:04:36.555Z,15.63
2018-04-20T22:07:02.929Z,16.80
2018-04-20T22:09:30.047Z,15.73
2018-04-20T22:11:56.419Z,14.80
2018-04-20T22:14:23.393Z,14.50
2018-04-20T22:16:49.800Z,14.27
2018-04-20T22:19:16.132Z,12.77
2018-04-20T22:21:42.518Z,14.60
2018-04-20T22:24:09.372Z,11.50
2018-04-20T22:26:35.691Z,12.50
2018-04-20T22:29:02.731Z,11.37
2018-04-20T22:31:29.075Z,12.00
2018-04-20T22:33:55.379Z,13.03
2018-04-20T22:36:21.900Z,10.77
2018-04-20T22:38:48.396Z,12.87
2018-04-20T22:41:14.792Z,10.63
2018-04-20T22:43:42.055Z,12.00
2018-04-20T22:46:08.540Z,12.00
2018-04-20T22:48:34.927Z,12.10
2018-04-20T22:51:01.349Z,13.07
2018-04-20T22:53:29.431Z,13.03
2018-04-20T22:55:55.748Z,11.73
2018-04-20T22:58:22.130Z,12.93
2018-04-20T23:00:49.275Z,13.00
2018-04-20T23:03:16.350Z,13.03
2018-04-20T23:05:42.678Z,13.13
2018-04-20T23:08:09.015Z,16.90
2018-04-20T23:10:35.348Z,19.33
2018-04-20T23:13:01.673Z,18.70
2018-04-20T23:15:27.986Z,15.63
2018-04-20T23:17:54.353Z,16.17
2018-04-20T23:20:20.744Z,14.63
2018-04-20T23:22:47.802Z,10.07
2018-04-20T23:25:14.244Z,11.10
2018-04-20T23:27:40.578Z,8.97
2018-04-20T23:30:06.979Z,10.23
2018-04-20T23:32:33.303Z,8.93
2018-04-20T23:34:59.823Z,8.00
2018-04-20T23:37:26.145Z,7.60
2018-04-20T23:39:52.480Z,8.57
2018-04-20T23:42:18.878Z,8.50
2018-04-20T23:44:45.193Z,7.60
2018-04-20T23:47:12.225Z,6.73
2018-04-20T23:49:39.288Z,8.60
2018-04-20T23:52:06.457Z,8.20
2018-04-20T23:54:32.835Z,8.10
2018-04-20T23:56:59.152Z,8.13
2018-04-20T23:59:25.426Z,8.47
